Time;durP1;ratioP1;P1;durP2;ratioP2;P2;SDS_P1;SDS_P2;PMS_P1;PMS_P2;Temp;Humidity;BMP_temperature;BMP_pressure;BME280_temperature;BME280_humidity;BME280_pressure;Samples;Min_cycle;Max_cycle;Signal;HPM_P1;HPM_P2
2021/06/08 00:00:11;;;;;;;4.55;4.00;;;;;;;;;;5106323;28;20019;-39
2021/06/08 00:02:36;;;;;;;9.27;4.28;;;;;;;;;;5103943;28;20019;-39
2021/06/08 00:05:01;;;;;;;9.85;3.58;;;;;;;;;;5102642;28;20047;-39
2021/06/08 00:07:26;;;;;;;6.20;3.65;;;;;;;;;;5103099;28;20128;-39
2021/06/08 00:09:52;;;;;;;7.05;4.10;;;;;;;;;;5106354;27;20066;-38
2021/06/08 00:12:17;;;;;;;9.27;4.03;;;;;;;;;;5102700;27;20764;-39
2021/06/08 00:14:42;;;;;;;6.18;2.75;;;;;;;;;;5104985;28;20028;-39
2021/06/08 00:17:08;;;;;;;7.57;3.08;;;;;;;;;;5099524;28;20056;-38
2021/06/08 00:19:33;;;;;;;4.18;2.92;;;;;;;;;;5098862;28;20769;-39
2021/06/08 00:21:58;;;;;;;3.15;2.58;;;;;;;;;;5101990;28;20019;-38
2021/06/08 00:24:24;;;;;;;5.07;3.85;;;;;;;;;;5101643;28;20016;-39
2021/06/08 00:26:49;;;;;;;4.43;2.75;;;;;;;;;;5111285;28;20066;-39
2021/06/08 00:29:14;;;;;;;4.72;3.83;;;;;;;;;;5111502;28;20015;-38
2021/06/08 00:31:39;;;;;;;3.35;2.67;;;;;;;;;;5109686;27;20129;-38
2021/06/08 00:34:05;;;;;;;4.80;3.42;;;;;;;;;;5099078;28;20081;-40
2021/06/08 00:36:30;;;;;;;12.63;3.53;;;;;;;;;;5097533;28;20019;-39
2021/06/08 00:38:55;;;;;;;10.25;3.42;;;;;;;;;;5100929;27;20126;-38
2021/06/08 00:41:34;;;;;;;4.47;2.90;;;;;;;;;;5104382;27;20015;-38
2021/06/08 00:44:02;;;;;;;9.10;3.42;;;;;;;;;;5099098;27;20076;-38
2021/06/08 00:46:28;;;;;;;6.40;4.15;;;;;;;;;;5098394;27;20024;-38
2021/06/08 00:48:53;;;;;;;8.70;2.47;;;;;;;;;;5104088;27;20116;-39
2021/06/08 00:51:19;;;;;;;4.32;2.67;;;;;;;;;;5106354;27;20063;-38
2021/06/08 00:53:44;;;;;;;4.22;2.28;;;;;;;;;;5103423;27;20016;-38
2021/06/08 00:56:09;;;;;;;4.18;2.58;;;;;;;;;;5100130;27;20019;-39
2021/06/08 00:58:34;;;;;;;5.30;3.30;;;;;;;;;;5111066;27;20009;-38
2021/06/08 01:01:00;;;;;;;5.13;2.92;;;;;;;;;;5104726;27;20106;-38
2021/06/08 01:03:26;;;;;;;4.25;2.50;;;;;;;;;;5099280;27;20011;-39
2021/06/08 01:05:52;;;;;;;5.95;3.58;;;;;;;;;;5104681;27;20126;-38
2021/06/08 01:08:17;;;;;;;3.80;2.33;;;;;;;;;;5105240;27;20134;-38
2021/06/08 01:10:42;;;;;;;4.35;2.92;;;;;;;;;;5101658;27;20474;-38
2021/06/08 01:13:08;;;;;;;5.18;2.45;;;;;;;;;;5101069;28;20020;-38
2021/06/08 01:15:33;;;;;;;5.00;2.75;;;;;;;;;;5108867;27;20049;-39
2021/06/08 01:17:59;;;;;;;5.38;3.08;;;;;;;;;;5111812;27;20531;-38
2021/06/08 01:20:25;;;;;;;3.40;3.00;;;;;;;;;;5109207;27;20027;-39
2021/06/08 01:22:50;;;;;;;4.93;2.85;;;;;;;;;;5118212;27;20076;-38
2021/06/08 01:25:15;;;;;;;5.18;3.00;;;;;;;;;;5102368;27;20097;-38
2021/06/08 01:27:41;;;;;;;5.72;2.72;;;;;;;;;;5102333;27;20039;-39
2021/06/08 01:30:08;;;;;;;8.15;2.33;;;;;;;;;;5106268;27;20099;-38
2021/06/08 01:32:34;;;;;;;6.78;2.70;;;;;;;;;;5107140;27;20023;-40
2021/06/08 01:34:59;;;;;;;2.67;1.80;;;;;;;;;;5106833;27;20103;-38
2021/06/08 01:37:25;;;;;;;3.47;2.20;;;;;;;;;;5106556;27;20098;-37
2021/06/08 01:39:51;;;;;;;7.78;3.75;;;;;;;;;;5103128;27;20016;-38
2021/06/08 01:42:17;;;;;;;5.28;3.63;;;;;;;;;;5104187;27;20019;-37
2021/06/08 01:44:43;;;;;;;5.93;4.75;;;;;;;;;;5100979;27;20027;-40
2021/06/08 01:47:08;;;;;;;3.80;3.13;;;;;;;;;;5104109;27;20028;-38
2021/06/08 01:49:34;;;;;;;4.85;3.33;;;;;;;;;;5098730;27;20028;-38
2021/06/08 01:52:06;;;;;;;4.65;3.38;;;;;;;;;;5104400;27;20019;-38
2021/06/08 01:54:38;;;;;;;6.45;4.85;;;;;;;;;;5099075;28;20107;-37
2021/06/08 01:57:03;;;;;;;6.50;3.13;;;;;;;;;;5102140;27;20030;-38
2021/06/08 01:59:44;;;;;;;5.78;4.15;;;;;;;;;;5107947;27;20024;-38
2021/06/08 02:02:19;;;;;;;9.05;4.95;;;;;;;;;;5100743;27;20016;-38
2021/06/08 02:05:01;;;;;;;15.60;3.40;;;;;;;;;;5100596;27;20028;-38
2021/06/08 02:07:36;;;;;;;3.83;2.78;;;;;;;;;;5099880;27;20037;-38
2021/06/08 02:10:20;;;;;;;6.80;3.10;;;;;;;;;;5101941;27;20024;-39
2021/06/08 02:12:49;;;;;;;3.92;3.05;;;;;;;;;;5103333;27;20443;-37
2021/06/08 02:15:16;;;;;;;6.40;3.28;;;;;;;;;;5102470;27;20024;-38
2021/06/08 02:17:49;;;;;;;4.68;2.95;;;;;;;;;;5106279;27;20483;-38
2021/06/08 02:20:20;;;;;;;10.05;3.28;;;;;;;;;;5104105;27;20468;-38
2021/06/08 02:22:49;;;;;;;3.60;2.53;;;;;;;;;;5104158;27;20044;-37
2021/06/08 02:25:16;;;;;;;2.88;2.10;;;;;;;;;;5102728;27;20032;-38
2021/06/08 02:27:41;;;;;;;5.68;3.17;;;;;;;;;;5104593;27;20015;-37
2021/06/08 02:30:07;;;;;;;4.60;2.53;;;;;;;;;;5102828;27;20685;-38
2021/06/08 02:32:33;;;;;;;7.65;2.95;;;;;;;;;;5105591;27;20630;-38
2021/06/08 02:34:59;;;;;;;9.25;3.42;;;;;;;;;;5102357;27;20486;-37
2021/06/08 02:37:25;;;;;;;3.80;2.90;;;;;;;;;;5097191;27;20407;-38
2021/06/08 02:39:51;;;;;;;4.43;2.63;;;;;;;;;;5106023;27;20623;-37
2021/06/08 02:42:18;;;;;;;6.30;3.17;;;;;;;;;;5110094;27;20071;-38
2021/06/08 02:44:44;;;;;;;9.40;2.55;;;;;;;;;;5105623;27;20019;-38
2021/06/08 02:47:10;;;;;;;5.95;3.00;;;;;;;;;;5107940;27;20039;-39
2021/06/08 02:49:35;;;;;;;4.50;3.22;;;;;;;;;;5103448;27;20028;-38
2021/06/08 02:52:01;;;;;;;5.75;2.95;;;;;;;;;;5102639;27;20015;-37
2021/06/08 02:54:26;;;;;;;7.78;3.72;;;;;;;;;;5102279;27;20111;-37
2021/06/08 02:56:53;;;;;;;5.43;4.03;;;;;;;;;;5100140;27;20080;-37
2021/06/08 02:59:18;;;;;;;3.53;2.13;;;;;;;;;;5099494;27;20024;-38
2021/06/08 03:01:56;;;;;;;3.88;2.60;;;;;;;;;;5099856;27;20023;-38
2021/06/08 03:04:23;;;;;;;5.00;2.67;;;;;;;;;;5097316;27;20379;-38
2021/06/08 03:06:53;;;;;;;5.47;3.20;;;;;;;;;;5101188;27;20379;-38
2021/06/08 03:09:22;;;;;;;4.03;2.55;;;;;;;;;;5099618;27;20043;-37
2021/06/08 03:11:51;;;;;;;3.60;2.83;;;;;;;;;;5109972;27;20015;-37
2021/06/08 03:14:17;;;;;;;4.22;2.72;;;;;;;;;;5105088;27;20026;-37
2021/06/08 03:16:51;;;;;;;4.32;2.65;;;;;;;;;;5103553;27;20016;-37
2021/06/08 03:19:18;;;;;;;6.78;2.72;;;;;;;;;;5100199;27;20030;-38
2021/06/08 03:21:44;;;;;;;3.58;2.33;;;;;;;;;;5105116;27;20016;-37
2021/06/08 03:24:12;;;;;;;5.65;2.92;;;;;;;;;;5098752;27;20440;-38
2021/06/08 03:26:38;;;;;;;5.68;3.63;;;;;;;;;;5098105;28;20028;-37
2021/06/08 03:29:06;;;;;;;2.85;2.58;;;;;;;;;;5105466;27;20029;-37
2021/06/08 03:31:33;;;;;;;6.30;4.15;;;;;;;;;;5104667;27;20022;-37
2021/06/08 03:33:58;;;;;;;2.53;1.95;;;;;;;;;;5101924;28;20016;-37
2021/06/08 03:36:26;;;;;;;11.77;10.73;;;;;;;;;;5100960;27;20043;-38
2021/06/08 03:38:52;;;;;;;12.68;4.38;;;;;;;;;;5107085;28;20020;-37
2021/06/08 03:41:17;;;;;;;9.98;3.72;;;;;;;;;;5100973;28;20020;-38
2021/06/08 03:43:43;;;;;;;12.07;3.58;;;;;;;;;;5107418;28;20024;-37
2021/06/08 03:46:09;;;;;;;7.43;2.97;;;;;;;;;;5100464;28;20047;-38
2021/06/08 03:48:34;;;;;;;4.80;2.63;;;;;;;;;;5104237;28;20042;-37
2021/06/08 03:51:00;;;;;;;5.57;3.30;;;;;;;;;;5105005;28;20016;-37
2021/06/08 03:53:25;;;;;;;2.25;1.88;;;;;;;;;;5099387;28;20050;-37
2021/06/08 03:55:51;;;;;;;3.70;3.30;;;;;;;;;;5105103;27;20387;-37
2021/06/08 03:58:18;;;;;;;3.33;2.03;;;;;;;;;;5097493;28;20024;-38
2021/06/08 04:00:46;;;;;;;11.13;8.88;;;;;;;;;;5109974;28;20367;-39
2021/06/08 04:03:12;;;;;;;7.03;5.93;;;;;;;;;;5100678;28;20026;-39
2021/06/08 04:05:37;;;;;;;6.93;3.65;;;;;;;;;;5099840;28;20040;-39
2021/06/08 04:08:04;;;;;;;10.27;4.00;;;;;;;;;;5106242;28;20494;-38
2021/06/08 04:10:30;;;;;;;5.82;3.85;;;;;;;;;;5106975;27;20537;-37
2021/06/08 04:13:02;;;;;;;8.23;3.47;;;;;;;;;;5094380;27;20032;-38
2021/06/08 04:15:28;;;;;;;10.55;4.57;;;;;;;;;;5098392;27;20030;-39
2021/06/08 04:17:54;;;;;;;6.75;2.45;;;;;;;;;;5101064;27;20031;-38
2021/06/08 04:20:19;;;;;;;3.38;2.33;;;;;;;;;;5105032;27;20041;-38
2021/06/08 04:22:46;;;;;;;7.20;3.28;;;;;;;;;;5098490;27;20103;-38
2021/06/08 04:25:12;;;;;;;2.55;2.35;;;;;;;;;;5102009;27;20410;-40
2021/06/08 04:27:37;;;;;;;5.13;3.92;;;;;;;;;;5107287;27;20023;-37
2021/06/08 04:30:04;;;;;;;7.40;4.22;;;;;;;;;;5101106;27;20031;-38
2021/06/08 04:32:31;;;;;;;3.72;3.33;;;;;;;;;;5104473;27;20015;-38
2021/06/08 04:34:56;;;;;;;6.38;4.07;;;;;;;;;;5108858;27;20024;-39
2021/06/08 04:37:22;;;;;;;6.25;3.35;;;;;;;;;;5114135;27;20059;-38
2021/06/08 04:39:47;;;;;;;4.90;3.72;;;;;;;;;;5107822;27;20474;-37
2021/06/08 04:42:14;;;;;;;13.27;2.45;;;;;;;;;;5103653;27;20251;-39
2021/06/08 04:44:43;;;;;;;3.78;3.30;;;;;;;;;;5103668;27;20608;-39
2021/06/08 04:47:09;;;;;;;6.38;4.15;;;;;;;;;;5101447;27;20081;-37
2021/06/08 04:49:34;;;;;;;6.80;3.58;;;;;;;;;;5100456;27;20455;-37
2021/06/08 04:51:59;;;;;;;2.92;2.63;;;;;;;;;;5105645;27;20020;-39
2021/06/08 04:54:25;;;;;;;4.93;3.17;;;;;;;;;;5104545;27;20015;-37
2021/06/08 04:56:51;;;;;;;9.30;3.38;;;;;;;;;;5108583;27;20030;-37
2021/06/08 04:59:18;;;;;;;3.95;3.28;;;;;;;;;;5102892;27;20482;-37
2021/06/08 05:01:44;;;;;;;10.35;4.05;;;;;;;;;;5104231;27;20188;-37
2021/06/08 05:04:11;;;;;;;7.63;5.05;;;;;;;;;;5108404;27;20024;-38
2021/06/08 05:06:40;;;;;;;9.48;4.72;;;;;;;;;;5107119;27;20032;-38
2021/06/08 05:09:10;;;;;;;3.17;2.88;;;;;;;;;;5108137;27;20088;-37
2021/06/08 05:11:44;;;;;;;4.68;3.78;;;;;;;;;;5101908;27;20062;-36
2021/06/08 05:14:11;;;;;;;9.35;4.85;;;;;;;;;;5102739;27;20107;-41
2021/06/08 05:16:39;;;;;;;5.28;3.45;;;;;;;;;;5100914;27;20474;-40
2021/06/08 05:19:06;;;;;;;8.10;6.43;;;;;;;;;;5095834;27;20027;-42
2021/06/08 05:21:31;;;;;;;7.13;6.53;;;;;;;;;;5103414;27;20012;-42
2021/06/08 05:23:57;;;;;;;10.15;4.28;;;;;;;;;;5110378;27;20023;-41
2021/06/08 05:26:23;;;;;;;9.90;4.00;;;;;;;;;;5107176;27;20027;-44
2021/06/08 05:28:49;;;;;;;9.95;3.85;;;;;;;;;;5103355;27;20149;-42
2021/06/08 05:31:20;;;;;;;6.03;4.47;;;;;;;;;;5103120;27;20031;-44
2021/06/08 05:33:46;;;;;;;5.90;3.95;;;;;;;;;;5103312;27;20047;-41
2021/06/08 05:36:11;;;;;;;9.00;3.45;;;;;;;;;;5103274;27;20439;-45
2021/06/08 05:38:38;;;;;;;6.28;4.10;;;;;;;;;;5101233;27;20020;-44
2021/06/08 05:41:08;;;;;;;7.78;4.18;;;;;;;;;;5100166;27;20051;-45
2021/06/08 05:43:33;;;;;;;5.30;4.80;;;;;;;;;;5098697;27;20015;-42
2021/06/08 05:45:59;;;;;;;5.13;4.63;;;;;;;;;;5113039;27;20452;-42
2021/06/08 05:48:26;;;;;;;14.10;9.15;;;;;;;;;;5102434;27;20031;-42
2021/06/08 05:50:55;;;;;;;3.97;3.58;;;;;;;;;;5103166;27;20765;-40
2021/06/08 05:53:20;;;;;;;8.57;4.15;;;;;;;;;;5100808;27;20028;-41
2021/06/08 05:55:48;;;;;;;17.08;4.07;;;;;;;;;;5097686;27;20390;-40
2021/06/08 05:58:14;;;;;;;4.65;2.92;;;;;;;;;;5099361;27;20035;-38
2021/06/08 06:00:39;;;;;;;7.85;3.80;;;;;;;;;;5097739;27;20024;-39
2021/06/08 06:03:05;;;;;;;3.90;3.60;;;;;;;;;;5103674;27;20092;-42
2021/06/08 06:05:31;;;;;;;5.45;4.25;;;;;;;;;;5100429;27;20044;-40
2021/06/08 06:07:56;;;;;;;4.90;3.60;;;;;;;;;;5098118;27;20158;-43
2021/06/08 06:10:22;;;;;;;8.82;5.32;;;;;;;;;;5096068;27;20085;-42
2021/06/08 06:12:49;;;;;;;8.07;3.63;;;;;;;;;;5100258;27;20031;-40
2021/06/08 06:15:15;;;;;;;5.95;3.10;;;;;;;;;;5104840;27;20055;-40
2021/06/08 06:17:41;;;;;;;6.43;3.60;;;;;;;;;;5100450;27;20767;-40
2021/06/08 06:20:09;;;;;;;7.78;3.90;;;;;;;;;;5100722;27;20030;-40
2021/06/08 06:22:35;;;;;;;10.55;5.13;;;;;;;;;;5101723;27;20078;-40
2021/06/08 06:25:01;;;;;;;12.60;5.63;;;;;;;;;;5099963;27;20030;-42
2021/06/08 06:27:27;;;;;;;9.00;6.10;;;;;;;;;;5100248;27;20027;-40
2021/06/08 06:29:52;;;;;;;11.57;5.18;;;;;;;;;;5098190;27;20032;-40
2021/06/08 06:32:19;;;;;;;8.73;5.43;;;;;;;;;;5098117;27;20632;-41
2021/06/08 06:34:44;;;;;;;12.25;4.75;;;;;;;;;;5101156;27;20019;-40
2021/06/08 06:37:10;;;;;;;9.48;5.95;;;;;;;;;;5101608;27;20554;-40
2021/06/08 06:39:36;;;;;;;14.27;4.85;;;;;;;;;;5095359;27;20118;-41
2021/06/08 06:42:02;;;;;;;18.95;6.00;;;;;;;;;;5098679;27;20027;-40
2021/06/08 06:44:28;;;;;;;5.22;3.53;;;;;;;;;;5098172;27;20043;-42
2021/06/08 06:46:53;;;;;;;10.48;6.22;;;;;;;;;;5103635;27;20058;-41
2021/06/08 06:49:20;;;;;;;20.65;4.72;;;;;;;;;;5104351;27;20062;-41
2021/06/08 06:51:46;;;;;;;11.60;4.63;;;;;;;;;;5103945;27;20478;-40
2021/06/08 06:54:11;;;;;;;9.40;3.35;;;;;;;;;;5104323;27;20019;-41
2021/06/08 06:56:37;;;;;;;7.80;4.25;;;;;;;;;;5101720;27;20577;-40
2021/06/08 06:59:04;;;;;;;21.80;5.50;;;;;;;;;;5100159;27;20036;-42
2021/06/08 07:01:29;;;;;;;11.77;4.95;;;;;;;;;;5093831;28;20016;-39
2021/06/08 07:03:56;;;;;;;15.07;7.53;;;;;;;;;;5098181;27;20084;-44
2021/06/08 07:06:22;;;;;;;4.18;3.78;;;;;;;;;;5097124;28;20043;-42
2021/06/08 07:08:52;;;;;;;5.13;3.78;;;;;;;;;;5096062;28;20028;-43
2021/06/08 07:11:17;;;;;;;5.28;4.82;;;;;;;;;;5098854;28;20027;-44
2021/06/08 07:13:43;;;;;;;8.25;4.93;;;;;;;;;;5098097;27;20519;-41
2021/06/08 07:16:09;;;;;;;5.00;3.38;;;;;;;;;;5100720;28;20476;-40
2021/06/08 07:18:34;;;;;;;12.15;4.13;;;;;;;;;;5097355;27;20038;-41
2021/06/08 07:21:04;;;;;;;11.40;7.35;;;;;;;;;;5105124;27;20033;-41
2021/06/08 07:23:30;;;;;;;10.75;3.63;;;;;;;;;;5104299;27;20103;-41
2021/06/08 07:25:55;;;;;;;4.30;3.53;;;;;;;;;;5100166;27;20126;-40
2021/06/08 07:28:20;;;;;;;17.27;4.80;;;;;;;;;;5100845;28;20019;-41
2021/06/08 07:30:46;;;;;;;5.97;3.08;;;;;;;;;;5097712;27;20516;-40
2021/06/08 07:33:32;;;;;;;10.27;4.22;;;;;;;;;;5095304;28;20051;-40
2021/06/08 07:36:05;;;;;;;3.00;2.35;;;;;;;;;;5103826;28;20027;-44
2021/06/08 07:38:45;;;;;;;3.70;2.15;;;;;;;;;;5101012;28;20525;-45
2021/06/08 07:41:13;;;;;;;1.55;1.13;;;;;;;;;;5096938;28;20028;-43
2021/06/08 07:43:44;;;;;;;1.33;1.08;;;;;;;;;;5101298;28;20031;-42
2021/06/08 07:46:13;;;;;;;3.97;2.17;;;;;;;;;;5096990;28;20522;-46
2021/06/08 07:48:40;;;;;;;2.38;1.73;;;;;;;;;;5101593;27;20839;-47
2021/06/08 07:51:06;;;;;;;8.60;2.55;;;;;;;;;;5099706;27;20182;-43
2021/06/08 07:53:32;;;;;;;7.28;1.85;;;;;;;;;;5105911;27;20412;-41
2021/06/08 07:55:58;;;;;;;2.45;1.30;;;;;;;;;;5103522;27;20028;-41
2021/06/08 07:58:25;;;;;;;16.38;1.67;;;;;;;;;;5101372;27;20020;-41
2021/06/08 08:00:50;;;;;;;9.60;3.15;;;;;;;;;;5103114;27;20506;-43
2021/06/08 08:03:29;;;;;;;2.85;2.05;;;;;;;;;;5103287;27;20031;-40
2021/06/08 08:05:56;;;;;;;6.13;2.58;;;;;;;;;;5101474;27;20043;-41
2021/06/08 08:08:22;;;;;;;4.63;2.63;;;;;;;;;;5103724;27;20112;-41
2021/06/08 08:10:48;;;;;;;14.48;8.32;;;;;;;;;;5105798;27;20023;-40
2021/06/08 08:13:17;;;;;;;3.60;2.15;;;;;;;;;;5101393;27;20043;-44
2021/06/08 08:15:45;;;;;;;1.75;1.48;;;;;;;;;;5103249;27;20023;-43
2021/06/08 08:18:11;;;;;;;3.50;2.10;;;;;;;;;;5105809;27;20020;-43
2021/06/08 08:20:55;;;;;;;12.82;3.45;;;;;;;;;;5100933;27;20035;-41
2021/06/08 08:23:21;;;;;;;3.20;2.28;;;;;;;;;;5096673;27;20026;-41
2021/06/08 08:25:47;;;;;;;4.60;2.13;;;;;;;;;;5099309;27;20024;-42
2021/06/08 08:28:13;;;;;;;16.55;3.72;;;;;;;;;;5100228;27;20483;-42
2021/06/08 08:30:39;;;;;;;8.60;3.38;;;;;;;;;;5105083;27;20043;-40
2021/06/08 08:33:04;;;;;;;12.85;3.20;;;;;;;;;;5101145;27;20448;-41
2021/06/08 08:35:30;;;;;;;4.50;2.85;;;;;;;;;;5103010;27;20031;-41
2021/06/08 08:37:56;;;;;;;7.68;2.65;;;;;;;;;;5101698;27;20035;-41
2021/06/08 08:40:22;;;;;;;4.57;3.15;;;;;;;;;;5097769;27;20028;-46
2021/06/08 08:42:48;;;;;;;5.30;4.50;;;;;;;;;;5109551;27;20051;-42
2021/06/08 08:45:13;;;;;;;2.78;1.70;;;;;;;;;;5101895;27;20054;-42
2021/06/08 08:47:39;;;;;;;7.47;2.00;;;;;;;;;;5106332;27;20019;-47
2021/06/08 08:50:05;;;;;;;9.25;4.30;;;;;;;;;;5104647;27;20023;-43
2021/06/08 08:52:30;;;;;;;13.63;3.83;;;;;;;;;;5099357;27;20028;-40
2021/06/08 08:54:56;;;;;;;2.85;1.70;;;;;;;;;;5099498;27;20081;-42
2021/06/08 08:57:21;;;;;;;4.88;3.05;;;;;;;;;;5099006;27;20447;-41
2021/06/08 08:59:47;;;;;;;7.55;2.83;;;;;;;;;;5098607;27;20016;-40
2021/06/08 09:02:12;;;;;;;12.40;6.45;;;;;;;;;;5103051;27;20016;-47
2021/06/08 09:04:38;;;;;;;8.52;2.75;;;;;;;;;;5106837;27;20039;-44
2021/06/08 09:07:03;;;;;;;3.88;2.65;;;;;;;;;;5106236;27;20028;-52
2021/06/08 09:09:29;;;;;;;3.92;2.80;;;;;;;;;;5108614;27;20031;-53
2021/06/08 09:11:54;;;;;;;3.65;1.63;;;;;;;;;;5102532;27;20067;-43
2021/06/08 09:14:19;;;;;;;6.63;3.15;;;;;;;;;;5099048;27;20058;-54
2021/06/08 09:16:45;;;;;;;5.95;2.80;;;;;;;;;;5102193;27;20457;-58
2021/06/08 09:19:11;;;;;;;5.00;1.48;;;;;;;;;;5098443;27;20028;-59
2021/06/08 09:21:43;;;;;;;16.98;2.17;;;;;;;;;;5100895;27;20036;-45
2021/06/08 09:24:15;;;;;;;5.35;2.08;;;;;;;;;;5107515;27;20027;-43
2021/06/08 09:26:49;;;;;;;2.92;1.80;;;;;;;;;;5099764;27;20409;-42
2021/06/08 09:29:30;;;;;;;4.45;2.20;;;;;;;;;;5101449;27;20155;-41
2021/06/08 09:32:30;;;;;;;4.05;2.15;;;;;;;;;;5103831;27;20026;-42
2021/06/08 09:34:57;;;;;;;11.73;2.22;;;;;;;;;;5025640;28;20017;-43
2021/06/08 09:37:29;;;;;;;8.15;2.85;;;;;;;;;;5085507;27;20031;-45
2021/06/08 09:39:54;;;;;;;1.55;0.90;;;;;;;;;;5099156;27;20060;-43
2021/06/08 09:42:21;;;;;;;2.47;1.45;;;;;;;;;;5100789;27;20024;-42
2021/06/08 09:44:47;;;;;;;2.53;1.08;;;;;;;;;;5102764;27;20701;-43
2021/06/08 09:47:23;;;;;;;10.88;6.55;;;;;;;;;;5099899;27;20152;-42
2021/06/08 09:49:49;;;;;;;3.58;2.60;;;;;;;;;;5103137;27;20107;-45
2021/06/08 09:52:18;;;;;;;3.75;1.08;;;;;;;;;;5104466;27;20136;-42
2021/06/08 09:54:50;;;;;;;5.40;3.58;;;;;;;;;;5113834;27;20701;-41
2021/06/08 09:57:17;;;;;;;4.30;1.20;;;;;;;;;;5106295;27;20026;-41
2021/06/08 09:59:42;;;;;;;7.43;1.70;;;;;;;;;;5104138;27;20020;-42
2021/06/08 10:02:27;;;;;;;4.75;1.85;;;;;;;;;;5099970;27;20551;-43
2021/06/08 10:04:53;;;;;;;3.72;1.58;;;;;;;;;;5098560;27;20122;-42
2021/06/08 10:07:29;;;;;;;7.85;2.78;;;;;;;;;;5105997;27;20031;-43
2021/06/08 10:10:10;;;;;;;14.10;2.03;;;;;;;;;;5100144;27;20135;-46
2021/06/08 10:12:52;;;;;;;2.95;1.35;;;;;;;;;;5104461;27;20034;-43
2021/06/08 10:15:20;;;;;;;1.17;0.75;;;;;;;;;;5096788;27;20534;-45
2021/06/08 10:17:46;;;;;;;2.22;1.00;;;;;;;;;;5102860;27;20216;-43
2021/06/08 10:20:18;;;;;;;6.10;2.13;;;;;;;;;;5105264;27;20547;-43
2021/06/08 10:22:43;;;;;;;3.22;1.83;;;;;;;;;;5105598;27;20019;-43
2021/06/08 10:25:09;;;;;;;2.53;1.27;;;;;;;;;;5101660;27;20027;-46
2021/06/08 10:27:34;;;;;;;5.25;1.60;;;;;;;;;;5102622;27;20089;-43
2021/06/08 10:30:00;;;;;;;2.95;2.15;;;;;;;;;;5106971;27;20433;-41
2021/06/08 10:32:25;;;;;;;6.97;2.33;;;;;;;;;;5106070;27;20023;-42
2021/06/08 10:34:51;;;;;;;6.90;3.35;;;;;;;;;;5103173;27;20119;-45
2021/06/08 10:37:17;;;;;;;3.67;1.73;;;;;;;;;;5101154;27;20023;-42
2021/06/08 10:39:43;;;;;;;3.90;1.20;;;;;;;;;;5106765;27;20063;-42
2021/06/08 10:42:09;;;;;;;3.67;1.02;;;;;;;;;;5098012;28;20072;-42
2021/06/08 10:44:35;;;;;;;15.95;2.05;;;;;;;;;;5098271;28;20095;-43
2021/06/08 10:47:07;;;;;;;1.92;0.90;;;;;;;;;;5097510;27;20023;-44
2021/06/08 10:49:37;;;;;;;4.88;1.63;;;;;;;;;;5101458;27;20030;-42
2021/06/08 10:52:02;;;;;;;2.85;1.60;;;;;;;;;;5098398;27;20111;-42
2021/06/08 10:54:27;;;;;;;12.00;2.80;;;;;;;;;;5097631;27;20107;-42
2021/06/08 10:57:00;;;;;;;20.50;2.90;;;;;;;;;;5105421;27;20020;-45
2021/06/08 10:59:45;;;;;;;4.88;1.27;;;;;;;;;;5109550;27;20026;-42
2021/06/08 11:02:12;;;;;;;3.90;1.70;;;;;;;;;;5103102;27;20079;-42
2021/06/08 11:04:51;;;;;;;5.38;2.53;;;;;;;;;;5103155;27;20530;-43
2021/06/08 11:07:36;;;;;;;2.55;1.40;;;;;;;;;;5099157;27;20058;-42
2021/06/08 11:10:22;;;;;;;4.45;1.92;;;;;;;;;;5099541;28;20072;-42
2021/06/08 11:12:47;;;;;;;1.50;0.93;;;;;;;;;;5099020;27;20141;-43
2021/06/08 11:15:22;;;;;;;9.55;2.25;;;;;;;;;;5100072;27;20020;-43
2021/06/08 11:17:47;;;;;;;2.13;1.65;;;;;;;;;;5100080;27;20020;-43
2021/06/08 11:20:12;;;;;;;5.88;2.35;;;;;;;;;;5110559;27;20085;-44
2021/06/08 11:22:40;;;;;;;3.15;2.28;;;;;;;;;;5103781;28;20031;-41
2021/06/08 11:25:07;;;;;;;3.47;1.80;;;;;;;;;;5099667;27;20062;-42
2021/06/08 11:27:51;;;;;;;5.07;2.55;;;;;;;;;;5097732;28;20024;-41
2021/06/08 11:30:22;;;;;;;3.17;1.85;;;;;;;;;;5107452;27;20513;-42
2021/06/08 11:32:48;;;;;;;2.70;1.48;;;;;;;;;;5100291;27;20020;-41
2021/06/08 11:35:19;;;;;;;4.00;1.27;;;;;;;;;;5099687;27;20064;-45
2021/06/08 11:37:51;;;;;;;4.18;1.33;;;;;;;;;;5097075;27;20051;-43
2021/06/08 11:40:35;;;;;;;3.95;1.23;;;;;;;;;;5104106;28;20032;-42
2021/06/08 11:43:01;;;;;;;1.35;0.80;;;;;;;;;;5102444;28;20031;-43
2021/06/08 11:45:27;;;;;;;4.55;2.20;;;;;;;;;;5107691;28;20498;-43
2021/06/08 11:47:52;;;;;;;3.90;2.10;;;;;;;;;;5104766;28;20044;-43
2021/06/08 11:50:42;;;;;;;9.20;1.63;;;;;;;;;;5099805;28;20023;-42
2021/06/08 11:53:12;;;;;;;3.67;1.48;;;;;;;;;;5102363;28;20095;-42
2021/06/08 11:55:37;;;;;;;1.08;0.65;;;;;;;;;;5103610;28;20027;-42
2021/06/08 11:58:03;;;;;;;2.08;1.23;;;;;;;;;;5098432;27;20541;-42
2021/06/08 12:00:41;;;;;;;3.47;1.60;;;;;;;;;;5092043;28;20039;-42
2021/06/08 12:03:26;;;;;;;5.80;1.98;;;;;;;;;;5095618;28;20076;-42
2021/06/08 12:05:51;;;;;;;2.63;1.52;;;;;;;;;;5103119;28;20093;-44
2021/06/08 12:08:26;;;;;;;3.55;1.40;;;;;;;;;;5105470;28;20490;-41
2021/06/08 12:10:56;;;;;;;2.95;0.90;;;;;;;;;;5103027;28;20468;-46
2021/06/08 12:13:31;;;;;;;21.83;3.55;;;;;;;;;;5099698;28;20023;-43
2021/06/08 12:15:57;;;;;;;1.58;1.05;;;;;;;;;;5101472;28;20042;-41
2021/06/08 12:18:28;;;;;;;3.15;1.95;;;;;;;;;;5100467;28;20028;-42
2021/06/08 12:20:54;;;;;;;3.30;1.05;;;;;;;;;;5102302;28;20033;-40
2021/06/08 12:23:30;;;;;;;2.38;0.90;;;;;;;;;;5102169;28;20280;-40
2021/06/08 12:26:16;;;;;;;8.95;2.10;;;;;;;;;;5103618;28;20081;-40
2021/06/08 12:28:42;;;;;;;1.60;0.93;;;;;;;;;;5100700;28;20020;-40
2021/06/08 12:31:16;;;;;;;9.82;2.25;;;;;;;;;;5097843;28;20552;-40
2021/06/08 12:33:41;;;;;;;5.95;1.40;;;;;;;;;;5099590;27;20051;-40
2021/06/08 12:36:07;;;;;;;4.00;1.38;;;;;;;;;;5101524;27;20581;-41
2021/06/08 12:38:33;;;;;;;2.03;1.05;;;;;;;;;;5108639;27;20016;-40
2021/06/08 12:41:03;;;;;;;2.97;1.83;;;;;;;;;;5103005;27;20730;-41
2021/06/08 12:43:39;;;;;;;1.23;0.85;;;;;;;;;;5103154;27;20131;-41
2021/06/08 12:46:04;;;;;;;1.35;0.63;;;;;;;;;;5109429;27;20027;-40
2021/06/08 12:48:29;;;;;;;1.65;1.00;;;;;;;;;;5101436;27;20024;-40
2021/06/08 12:50:55;;;;;;;1.20;0.93;;;;;;;;;;5107096;27;20015;-43
2021/06/08 12:53:24;;;;;;;3.30;1.35;;;;;;;;;;5108421;27;20534;-41
2021/06/08 12:55:50;;;;;;;9.55;5.13;;;;;;;;;;5105305;27;20435;-43
2021/06/08 12:58:17;;;;;;;7.20;2.22;;;;;;;;;;5102127;27;20016;-44
2021/06/08 13:00:43;;;;;;;5.13;3.42;;;;;;;;;;5105754;27;20068;-43
2021/06/08 13:03:08;;;;;;;5.05;0.77;;;;;;;;;;5100352;27;20032;-43
2021/06/08 13:05:35;;;;;;;3.05;1.90;;;;;;;;;;5101919;27;20146;-43
2021/06/08 13:08:01;;;;;;;2.75;1.25;;;;;;;;;;5104707;27;20035;-43
2021/06/08 13:10:28;;;;;;;1.60;1.13;;;;;;;;;;5102696;27;20074;-42
2021/06/08 13:12:54;;;;;;;4.28;1.60;;;;;;;;;;5102261;27;20051;-46
2021/06/08 13:15:27;;;;;;;5.78;3.33;;;;;;;;;;5104255;27;20058;-45
2021/06/08 13:18:01;;;;;;;1.23;1.02;;;;;;;;;;5105277;27;20011;-47
2021/06/08 13:20:29;;;;;;;6.18;2.05;;;;;;;;;;5106372;27;20023;-43
2021/06/08 13:22:54;;;;;;;2.17;1.42;;;;;;;;;;5102232;27;20035;-42
2021/06/08 13:25:22;;;;;;;2.22;1.88;;;;;;;;;;5100156;28;20364;-43
2021/06/08 13:27:47;;;;;;;7.00;2.75;;;;;;;;;;5102411;27;20141;-42
2021/06/08 13:30:21;;;;;;;5.28;2.22;;;;;;;;;;5109348;27;20782;-43
2021/06/08 13:33:06;;;;;;;2.90;1.60;;;;;;;;;;5107626;27;20098;-43
2021/06/08 13:35:36;;;;;;;2.22;1.52;;;;;;;;;;5100323;27;20020;-44
2021/06/08 13:38:06;;;;;;;6.47;1.60;;;;;;;;;;5101665;27;20100;-44
2021/06/08 13:40:35;;;;;;;4.22;2.08;;;;;;;;;;5105309;27;20452;-44
2021/06/08 13:43:03;;;;;;;3.25;2.00;;;;;;;;;;5110096;27;20046;-46
2021/06/08 13:45:29;;;;;;;6.00;2.65;;;;;;;;;;5106575;27;20455;-43
2021/06/08 13:47:54;;;;;;;1.73;1.20;;;;;;;;;;5098536;28;20074;-42
2021/06/08 13:50:21;;;;;;;3.40;2.03;;;;;;;;;;5101558;27;20019;-43
2021/06/08 13:52:46;;;;;;;8.73;2.40;;;;;;;;;;5101820;27;20020;-48
2021/06/08 13:55:12;;;;;;;1.80;1.63;;;;;;;;;;5099181;27;20024;-45
2021/06/08 13:57:45;;;;;;;4.90;2.33;;;;;;;;;;5100316;27;20016;-46
2021/06/08 14:00:17;;;;;;;4.03;2.00;;;;;;;;;;5100533;27;20451;-45
2021/06/08 14:02:50;;;;;;;4.75;1.52;;;;;;;;;;5109455;27;20079;-45
2021/06/08 14:05:22;;;;;;;4.40;2.17;;;;;;;;;;5110180;27;20040;-44
2021/06/08 14:07:47;;;;;;;13.95;2.03;;;;;;;;;;5107889;27;20020;-44
2021/06/08 14:10:13;;;;;;;3.95;1.55;;;;;;;;;;5101259;27;20137;-44
2021/06/08 14:12:56;;;;;;;1.83;1.15;;;;;;;;;;5098535;27;20697;-46
2021/06/08 14:15:21;;;;;;;2.50;1.13;;;;;;;;;;5105978;27;20053;-44
2021/06/08 14:17:47;;;;;;;6.32;2.08;;;;;;;;;;5105388;27;20047;-43
2021/06/08 14:20:12;;;;;;;4.50;1.73;;;;;;;;;;5104201;27;20028;-43
2021/06/08 14:22:38;;;;;;;2.17;1.33;;;;;;;;;;5096710;27;20431;-43
2021/06/08 14:25:03;;;;;;;3.03;1.13;;;;;;;;;;5102162;27;20437;-42
2021/06/08 14:27:34;;;;;;;2.55;0.82;;;;;;;;;;5096034;27;20036;-47
2021/06/08 14:29:59;;;;;;;;;;;;;;;;;;5100059;27;20028;-48
2021/06/08 14:32:24;;;;;;;2.53;1.27;;;;;;;;;;5101332;27;19915;-44
2021/06/08 14:34:50;;;;;;;2.60;1.30;;;;;;;;;;5099380;27;20052;-47
2021/06/08 14:37:15;;;;;;;3.05;1.23;;;;;;;;;;5107761;27;20120;-46
2021/06/08 14:39:40;;;;;;;2.05;1.52;;;;;;;;;;5104560;27;20054;-44
2021/06/08 14:42:06;;;;;;;4.22;1.60;;;;;;;;;;5103295;27;20492;-46
2021/06/08 14:44:31;;;;;;;4.32;1.55;;;;;;;;;;5103971;27;20098;-44